Morning Cedar — D7LR — position and weather

sailwx.info

Track history (hours):
 
Tides and Currents Weather Stations Pressure Air Temp Water Temp Dewpoint Dewpoint Depression Visibility Wind Speed Wind Dir Waves Ship Positions

Morning Cedar

Last reported at 2017-Aug-08 03:49 UTC. Time now 2017-Aug-20 06:11 UTC.
Position S 27°44' E 153°49'.
Warning: this ship's position is 12 days out of date.

Length 269 m; draft 15.1 m.

Type: Cargo ship. MMSI: 440106000.

Date/timePositionNaut miles runAvg speedWind from/ knotsBaromVisibWave heightAir tempDewpointWater temp
2017-Aug-08 03:49S 27°44' E 153°49'411.0
2017-Aug-08 03:29S 27°48' E 153°48'511.2
2017-Aug-08 03:00S 27°53' E 153°48'27611.5
2017-Aug-07 03:03S 32°24' E 152°42'111.9
2017-Aug-07 02:59S 32°25' E 152°42'1012.1
2017-Aug-07 02:11S 32°33' E 152°36'212.9
2017-Aug-07 02:00S 32°35' E 152°34'612.7
2017-Aug-07 01:30S 32°39' E 152°29'612.6
2017-Aug-07 01:00S 32°44' E 152°24'612.5
2017-Aug-07 00:30S 32°48' E 152°19'612.1
2017-Aug-07 00:00S 32°52' E 152°13'612.1
2017-Aug-06 23:30S 32°54' E 152°06'611.7
2017-Aug-06 23:00S 32°56' E 151°60'611.8
2017-Aug-06 22:30S 32°57' E 151°53'4 8.8
2017-Aug-06 22:00S 32°55' E 151°48'2 3.0
2017-Aug-06 21:30S 32°54' E 151°46'1 2.8
2017-Aug-06 21:00S 32°53' E 151°45'0 0.7
2017-Aug-06 20:23S 32°53' E 151°45'0 0.0
2017-Aug-06 19:56S 32°53' E 151°45'0 0.0
2017-Aug-06 18:02S 32°53' E 151°45'0 0.0
2017-Aug-06 17:44S 32°53' E 151°45'0 0.0
2017-Aug-06 17:17S 32°53' E 151°45'0 0.0
2017-Aug-06 16:08S 32°53' E 151°45'0 0.1
2017-Aug-06 15:56S 32°53' E 151°45'0 0.0
2017-Aug-06 14:14S 32°53' E 151°45'0 0.2
2017-Aug-06 13:56S 32°53' E 151°45'0 0.0
2017-Aug-06 13:20S 32°53' E 151°45'0 0.0
2017-Aug-06 12:56S 32°53' E 151°45'0 0.0
2017-Aug-06 11:07S 32°53' E 151°45'0 0.1
2017-Aug-06 10:41S 32°53' E 151°45'0 0.0
2017-Aug-06 10:29S 32°53' E 151°45'0 0.1
2017-Aug-06 09:50S 32°53' E 151°45'0 0.0
2017-Aug-06 07:47S 32°53' E 151°45'0 0.0
2017-Aug-06 06:11S 32°53' E 151°45'0 0.0
2017-Aug-06 05:59S 32°53' E 151°45'0 0.1
2017-Aug-06 05:29S 32°53' E 151°45'0 0.0
2017-Aug-06 03:44S 32°53' E 151°45'0 0.0
2017-Aug-06 03:26S 32°53' E 151°45'0 0.1
2017-Aug-06 02:56S 32°53' E 151°45'0 0.1
2017-Aug-06 02:20S 32°53' E 151°45'0 0.0
2017-Aug-06 01:50S 32°53' E 151°45'0 0.0
2017-Aug-06 01:23S 32°53' E 151°45'0 0.0
2017-Aug-06 00:56S 32°53' E 151°45'0 0.0
2017-Aug-06 00:23S 32°53' E 151°45'0 0.0
2017-Aug-05 23:59S 32°53' E 151°45'0 0.0
2017-Aug-05 23:26S 32°53' E 151°45'0 0.1
2017-Aug-05 22:56S 32°53' E 151°45'0 0.0
2017-Aug-05 22:26S 32°53' E 151°45'0 0.1
2017-Aug-05 21:56S 32°53' E 151°45'0 0.0
2017-Aug-05 21:26S 32°53' E 151°45'0 0.0
2017-Aug-05 20:59S 32°53' E 151°45'0 0.0
2017-Aug-05 20:30S 32°53' E 151°45'1 1.8
2017-Aug-05 20:00S 32°53' E 151°46'2 3.5
2017-Aug-05 19:30S 32°55' E 151°47'3 6.3
2017-Aug-05 19:00S 32°55' E 151°50'4 8.7
2017-Aug-05 18:30S 32°59' E 151°53'3 6.8
2017-Aug-05 18:00S 33°02' E 151°56'4 8.3
2017-Aug-05 17:30S 33°04' E 151°60'4 7.9
2017-Aug-05 17:00S 33°06' E 152°03'612.1
2017-Aug-05 16:30S 33°11' E 152°08'612.9
2017-Aug-05 16:00S 33°15' E 152°14'3 5.6
2017-Aug-05 15:24S 33°16' E 152°18'1 1.7
2017-Aug-05 15:00S 33°15' E 152°19'1 1.6
2017-Aug-05 14:30S 33°14' E 152°19'1 1.5
2017-Aug-05 14:00S 33°14' E 152°19'1 1.6
2017-Aug-05 13:30S 33°13' E 152°20'1 1.6
2017-Aug-05 13:00S 33°12' E 152°20'1 1.6
2017-Aug-05 12:30S 33°11' E 152°20'1 1.7
2017-Aug-05 12:00S 33°11' E 152°20'1 1.7
2017-Aug-05 11:30S 33°10' E 152°20'1 1.7
2017-Aug-05 11:00S 33°09' E 152°20'1 1.9
2017-Aug-05 10:30S 33°08' E 152°19'1 2.0
2017-Aug-05 10:00S 33°07' E 152°19'1 1.9
2017-Aug-05 09:30S 33°06' E 152°19'1 1.9
2017-Aug-05 09:00S 33°05' E 152°19'1 2.0
2017-Aug-05 08:30S 33°04' E 152°19'1 1.9
2017-Aug-05 08:00S 33°03' E 152°18'1 1.7
2017-Aug-05 07:30S 33°03' E 152°18'1 2.0
2017-Aug-05 07:00S 33°02' E 152°17'2 3.1
2017-Aug-05 06:30S 33°01' E 152°19'1 2.7
2017-Aug-05 06:00S 33°01' E 152°20'1 2.7
2017-Aug-05 05:29S 33°01' E 152°19'1 2.6
2017-Aug-05 04:59S 33°02' E 152°17'1 2.5
2017-Aug-05 04:29S 33°02' E 152°16'1 2.6
2017-Aug-05 03:59S 33°02' E 152°14'1 2.5
2017-Aug-05 03:26S 33°03' E 152°13'1 2.4
2017-Aug-05 02:59S 33°03' E 152°11'1 2.4
2017-Aug-05 02:29S 33°03' E 152°10'1 2.3
2017-Aug-05 01:59S 33°04' E 152°09'1 2.2
2017-Aug-05 01:29S 33°04' E 152°07'1 2.0
2017-Aug-05 00:59S 33°04' E 152°06'1 2.1
2017-Aug-05 00:29S 33°04' E 152°05'1 2.2
2017-Aug-04 23:59S 33°04' E 152°04'1 2.2
2017-Aug-04 23:29S 33°04' E 152°02'1 2.0
2017-Aug-04 22:59S 33°04' E 152°01'1 2.5
2017-Aug-04 22:31S 33°03' E 151°60'4 8.4
2017-Aug-04 22:00S 33°03' E 151°55'3 5.5
2017-Aug-04 21:31S 33°01' E 151°57'611.6
2017-Aug-04 21:00S 32°58' E 152°03'5 9.4
2017-Aug-04 20:31S 32°55' E 152°07'611.8
2017-Aug-04 20:00S 32°52' E 152°13'510.6
2017-Aug-04 19:31S 32°49' E 152°18'510.2
2017-Aug-04 19:01S 32°45' E 152°22'510.6
2017-Aug-04 18:30S 32°41' E 152°27'612.1
2017-Aug-04 18:01S 32°37' E 152°32'612.6
2017-Aug-04 17:30S 32°32' E 152°37'612.6
2017-Aug-04 17:00S 32°27' E 152°41'26612.7
2017-Aug-03 20:03S 28°08' E 153°51'113.3
2017-Aug-03 20:00S 28°07' E 153°51'1513.1
2017-Aug-03 18:52S 27°52' E 153°52'513.9
2017-Aug-03 18:30S 27°47' E 153°52'814.9
2017-Aug-03 17:59S 27°40' E 153°53'3315.0
2017-Aug-03 15:49S 27°07' E 153°53'414.6
2017-Aug-03 15:30S 27°02' E 153°54'  
Track history (hours):
 
Tides and Currents Weather Stations Pressure Air Temp Water Temp Dewpoint Dewpoint Depression Visibility Wind Speed Wind Dir Waves Ship Positions

Morning Cedar

Last reported at 2017-Aug-08 03:49 UTC. Time now 2017-Aug-20 06:11 UTC.
Position S 27°44' E 153°49'.
Warning: this ship's position is 12 days out of date.

Length 269 m; draft 15.1 m.

Type: Cargo ship. MMSI: 440106000.

Date/timePositionNaut miles runAvg speedWind from/ knotsBaromVisibWave heightAir tempDewpointWater temp
2017-Aug-08 03:49S 27°44' E 153°49'411.0
2017-Aug-08 03:29S 27°48' E 153°48'511.2
2017-Aug-08 03:00S 27°53' E 153°48'27611.5
2017-Aug-07 03:03S 32°24' E 152°42'111.9
2017-Aug-07 02:59S 32°25' E 152°42'1012.1
2017-Aug-07 02:11S 32°33' E 152°36'212.9
2017-Aug-07 02:00S 32°35' E 152°34'612.7
2017-Aug-07 01:30S 32°39' E 152°29'612.6
2017-Aug-07 01:00S 32°44' E 152°24'612.5
2017-Aug-07 00:30S 32°48' E 152°19'612.1
2017-Aug-07 00:00S 32°52' E 152°13'612.1
2017-Aug-06 23:30S 32°54' E 152°06'611.7
2017-Aug-06 23:00S 32°56' E 151°60'611.8
2017-Aug-06 22:30S 32°57' E 151°53'4 8.8
2017-Aug-06 22:00S 32°55' E 151°48'2 3.0
2017-Aug-06 21:30S 32°54' E 151°46'1 2.8
2017-Aug-06 21:00S 32°53' E 151°45'0 0.7
2017-Aug-06 20:23S 32°53' E 151°45'0 0.0
2017-Aug-06 19:56S 32°53' E 151°45'0 0.0
2017-Aug-06 18:02S 32°53' E 151°45'0 0.0
2017-Aug-06 17:44S 32°53' E 151°45'0 0.0
2017-Aug-06 17:17S 32°53' E 151°45'0 0.0
2017-Aug-06 16:08S 32°53' E 151°45'0 0.1
2017-Aug-06 15:56S 32°53' E 151°45'0 0.0
2017-Aug-06 14:14S 32°53' E 151°45'0 0.2
2017-Aug-06 13:56S 32°53' E 151°45'0 0.0
2017-Aug-06 13:20S 32°53' E 151°45'0 0.0
2017-Aug-06 12:56S 32°53' E 151°45'0 0.0
2017-Aug-06 11:07S 32°53' E 151°45'0 0.1
2017-Aug-06 10:41S 32°53' E 151°45'0 0.0
2017-Aug-06 10:29S 32°53' E 151°45'0 0.1
2017-Aug-06 09:50S 32°53' E 151°45'0 0.0
2017-Aug-06 07:47S 32°53' E 151°45'0 0.0
2017-Aug-06 06:11S 32°53' E 151°45'0 0.0
2017-Aug-06 05:59S 32°53' E 151°45'0 0.1
2017-Aug-06 05:29S 32°53' E 151°45'0 0.0
2017-Aug-06 03:44S 32°53' E 151°45'0 0.0
2017-Aug-06 03:26S 32°53' E 151°45'0 0.1
2017-Aug-06 02:56S 32°53' E 151°45'0 0.1
2017-Aug-06 02:20S 32°53' E 151°45'0 0.0
2017-Aug-06 01:50S 32°53' E 151°45'0 0.0
2017-Aug-06 01:23S 32°53' E 151°45'0 0.0
2017-Aug-06 00:56S 32°53' E 151°45'0 0.0
2017-Aug-06 00:23S 32°53' E 151°45'0 0.0
2017-Aug-05 23:59S 32°53' E 151°45'0 0.0
2017-Aug-05 23:26S 32°53' E 151°45'0 0.1
2017-Aug-05 22:56S 32°53' E 151°45'0 0.0
2017-Aug-05 22:26S 32°53' E 151°45'0 0.1
2017-Aug-05 21:56S 32°53' E 151°45'0 0.0
2017-Aug-05 21:26S 32°53' E 151°45'0 0.0
2017-Aug-05 20:59S 32°53' E 151°45'0 0.0
2017-Aug-05 20:30S 32°53' E 151°45'1 1.8
2017-Aug-05 20:00S 32°53' E 151°46'2 3.5
2017-Aug-05 19:30S 32°55' E 151°47'3 6.3
2017-Aug-05 19:00S 32°55' E 151°50'4 8.7
2017-Aug-05 18:30S 32°59' E 151°53'3 6.8
2017-Aug-05 18:00S 33°02' E 151°56'4 8.3
2017-Aug-05 17:30S 33°04' E 151°60'4 7.9
2017-Aug-05 17:00S 33°06' E 152°03'612.1
2017-Aug-05 16:30S 33°11' E 152°08'612.9
2017-Aug-05 16:00S 33°15' E 152°14'3 5.6
2017-Aug-05 15:24S 33°16' E 152°18'1 1.7
2017-Aug-05 15:00S 33°15' E 152°19'1 1.6
2017-Aug-05 14:30S 33°14' E 152°19'1 1.5
2017-Aug-05 14:00S 33°14' E 152°19'1 1.6
2017-Aug-05 13:30S 33°13' E 152°20'1 1.6
2017-Aug-05 13:00S 33°12' E 152°20'1 1.6
2017-Aug-05 12:30S 33°11' E 152°20'1 1.7
2017-Aug-05 12:00S 33°11' E 152°20'1 1.7
2017-Aug-05 11:30S 33°10' E 152°20'1 1.7
2017-Aug-05 11:00S 33°09' E 152°20'1 1.9
2017-Aug-05 10:30S 33°08' E 152°19'1 2.0
2017-Aug-05 10:00S 33°07' E 152°19'1 1.9
2017-Aug-05 09:30S 33°06' E 152°19'1 1.9
2017-Aug-05 09:00S 33°05' E 152°19'1 2.0
2017-Aug-05 08:30S 33°04' E 152°19'1 1.9
2017-Aug-05 08:00S 33°03' E 152°18'1 1.7
2017-Aug-05 07:30S 33°03' E 152°18'1 2.0
2017-Aug-05 07:00S 33°02' E 152°17'2 3.1
2017-Aug-05 06:30S 33°01' E 152°19'1 2.7
2017-Aug-05 06:00S 33°01' E 152°20'1 2.7
2017-Aug-05 05:29S 33°01' E 152°19'1 2.6
2017-Aug-05 04:59S 33°02' E 152°17'1 2.5
2017-Aug-05 04:29S 33°02' E 152°16'1 2.6
2017-Aug-05 03:59S 33°02' E 152°14'1 2.5
2017-Aug-05 03:26S 33°03' E 152°13'1 2.4
2017-Aug-05 02:59S 33°03' E 152°11'1 2.4
2017-Aug-05 02:29S 33°03' E 152°10'1 2.3
2017-Aug-05 01:59S 33°04' E 152°09'1 2.2
2017-Aug-05 01:29S 33°04' E 152°07'1 2.0
2017-Aug-05 00:59S 33°04' E 152°06'1 2.1
2017-Aug-05 00:29S 33°04' E 152°05'1 2.2
2017-Aug-04 23:59S 33°04' E 152°04'1 2.2
2017-Aug-04 23:29S 33°04' E 152°02'1 2.0
2017-Aug-04 22:59S 33°04' E 152°01'1 2.5
2017-Aug-04 22:31S 33°03' E 151°60'4 8.4
2017-Aug-04 22:00S 33°03' E 151°55'3 5.5
2017-Aug-04 21:31S 33°01' E 151°57'611.6
2017-Aug-04 21:00S 32°58' E 152°03'5 9.4
2017-Aug-04 20:31S 32°55' E 152°07'611.8
2017-Aug-04 20:00S 32°52' E 152°13'510.6
2017-Aug-04 19:31S 32°49' E 152°18'510.2
2017-Aug-04 19:01S 32°45' E 152°22'510.6
2017-Aug-04 18:30S 32°41' E 152°27'612.1
2017-Aug-04 18:01S 32°37' E 152°32'612.6
2017-Aug-04 17:30S 32°32' E 152°37'612.6
2017-Aug-04 17:00S 32°27' E 152°41'26612.7
2017-Aug-03 20:03S 28°08' E 153°51'113.3
2017-Aug-03 20:00S 28°07' E 153°51'1513.1
2017-Aug-03 18:52S 27°52' E 153°52'513.9
2017-Aug-03 18:30S 27°47' E 153°52'814.9
2017-Aug-03 17:59S 27°40' E 153°53'3315.0
2017-Aug-03 15:49S 27°07' E 153°53'414.6
2017-Aug-03 15:30S 27°02' E 153°54'  

Dump ship's entire track history